Time;durP1;ratioP1;P1;durP2;ratioP2;P2;SDS_P1;SDS_P2;PMS_P1;PMS_P2;Temp;Humidity;BMP_temperature;BMP_pressure;BME280_temperature;BME280_humidity;BME280_pressure;Samples;Min_cycle;Max_cycle;Signal;HPM_P1;HPM_P2
2021/08/26 00:06:56;;;;;;;10.35;7.93;;;;;;;15.16;94.20;100018.88;5021096;28;20038;-78
2021/08/26 00:09:21;;;;;;;6.95;6.22;;;;;;;15.19;94.37;100024.09;5025547;28;20109;-78
2021/08/26 00:11:48;;;;;;;7.97;7.18;;;;;;;15.19;94.11;100017.91;5024753;28;20041;-78
2021/08/26 00:14:14;;;;;;;8.27;7.38;;;;;;;15.19;94.30;100016.13;5024484;28;20091;-78
2021/08/26 00:16:42;;;;;;;6.50;5.80;;;;;;;15.16;94.14;100010.91;5023107;28;20506;-78
2021/08/26 00:19:08;;;;;;;6.03;4.35;;;;;;;15.19;94.23;100010.81;5006778;28;20124;-77
2021/08/26 00:21:34;;;;;;;5.55;4.28;;;;;;;15.18;93.90;100009.06;5024269;28;20725;-78
2021/08/26 00:23:59;;;;;;;4.82;3.95;;;;;;;15.21;93.86;100014.28;5021838;28;20088;-77
2021/08/26 00:26:25;;;;;;;4.32;3.60;;;;;;;15.22;93.86;100010.72;5019516;28;20089;-78
2021/08/26 00:28:50;;;;;;;5.00;3.90;;;;;;;15.28;93.79;100010.50;5033055;28;20045;-76
2021/08/26 00:31:15;;;;;;;6.65;3.65;;;;;;;15.24;93.49;100008.84;5023733;28;20046;-77
2021/08/26 00:33:41;;;;;;;5.47;3.13;;;;;;;15.32;93.23;100001.50;5019938;28;20033;-77
2021/08/26 00:36:06;;;;;;;4.15;3.08;;;;;;;15.32;93.07;99993.50;5014478;28;20049;-75
2021/08/26 00:38:31;;;;;;;4.43;3.25;;;;;;;15.34;92.97;99993.47;5013250;28;20049;-77
2021/08/26 00:40:59;;;;;;;4.90;2.70;;;;;;;15.47;92.33;99988.59;5013297;28;20107;-77
2021/08/26 00:43:26;;;;;;;4.30;3.30;;;;;;;15.49;91.98;99981.44;5029799;28;20042;-76
2021/08/26 00:45:52;;;;;;;3.58;2.70;;;;;;;15.50;91.66;99977.84;5015665;28;20064;-78
2021/08/26 00:48:21;;;;;;;8.43;3.08;;;;;;;15.48;91.31;99977.03;5016684;28;20030;-78
2021/08/26 00:50:50;;;;;;;3.88;2.88;;;;;;;15.50;91.81;99962.75;5020484;28;20056;-77
2021/08/26 00:53:15;;;;;;;4.53;3.00;;;;;;;15.51;91.37;99967.19;5021974;28;20026;-77
2021/08/26 00:55:40;;;;;;;3.95;2.88;;;;;;;15.49;91.66;99963.69;5022153;28;20145;-77
2021/08/26 00:58:06;;;;;;;4.88;3.30;;;;;;;15.47;91.21;99967.31;5021509;28;20038;-77
2021/08/26 01:00:32;;;;;;;4.30;2.65;;;;;;;15.40;92.03;99958.69;5023483;28;20029;-76
2021/08/26 01:03:03;;;;;;;4.13;2.55;;;;;;;15.39;92.09;99956.09;5022831;28;20042;-77
2021/08/26 01:05:34;;;;;;;4.25;2.90;;;;;;;15.39;92.10;99954.31;5024292;28;20049;-78
2021/08/26 01:08:06;;;;;;;3.88;3.05;;;;;;;15.35;92.23;99952.66;5023769;28;20116;-77
2021/08/26 01:10:31;;;;;;;4.68;3.10;;;;;;;15.37;92.20;99955.28;5026006;28;20038;-78
2021/08/26 01:12:58;;;;;;;4.32;2.85;;;;;;;15.36;92.30;99958.88;5024805;28;20073;-78
2021/08/26 01:15:26;;;;;;;5.10;2.75;;;;;;;15.30;92.51;99971.44;5026116;28;20042;-77
2021/08/26 01:17:52;;;;;;;4.53;3.17;;;;;;;15.28;92.72;99956.47;5027821;28;20038;-78
2021/08/26 01:20:17;;;;;;;3.75;2.65;;;;;;;15.24;92.26;99961.00;5028455;28;20025;-78
2021/08/26 01:22:42;;;;;;;4.28;3.17;;;;;;;15.22;92.49;99956.66;5027494;28;20086;-79
2021/08/26 01:25:11;;;;;;;5.57;3.60;;;;;;;15.20;92.82;99947.91;5025523;28;20065;-78
2021/08/26 01:27:56;;;;;;;5.03;3.60;;;;;;;15.13;92.62;99960.50;5044116;28;20109;-77
2021/08/26 01:30:25;;;;;;;4.80;3.40;;;;;;;15.08;93.02;99958.00;5025184;28;20033;-77
2021/08/26 01:32:54;;;;;;;5.22;3.72;;;;;;;15.05;92.81;99965.22;5028528;28;20369;-78
2021/08/26 01:35:21;;;;;;;4.63;3.10;;;;;;;15.02;92.56;99960.03;5026801;28;20427;-77
2021/08/26 01:37:47;;;;;;;5.45;2.83;;;;;;;15.00;92.75;99965.38;5023054;28;20052;-77
2021/08/26 01:40:13;;;;;;;4.40;2.28;;;;;;;14.94;91.97;99962.06;5023026;28;20034;-77
2021/08/26 01:42:38;;;;;;;4.15;2.30;;;;;;;14.93;91.53;99966.47;5022485;28;20029;-77
2021/08/26 01:45:06;;;;;;;4.28;2.40;;;;;;;14.92;90.94;99964.75;5023460;28;20448;-76
2021/08/26 01:47:31;;;;;;;4.38;2.20;;;;;;;14.84;87.60;99957.03;5023750;28;20030;-77
2021/08/26 01:49:58;;;;;;;5.60;2.08;;;;;;;14.71;86.42;99953.03;5022683;28;20038;-78
2021/08/26 01:52:25;;;;;;;6.15;2.10;;;;;;;14.59;87.70;99950.78;5020741;28;20044;-77
2021/08/26 01:55:00;;;;;;;5.53;2.42;;;;;;;14.54;88.13;99952.72;5022121;28;20382;-77
2021/08/26 01:57:29;;;;;;;5.88;2.75;;;;;;;14.51;88.14;99947.47;5020377;28;20092;-77
2021/08/26 01:59:57;;;;;;;6.95;2.22;;;;;;;14.50;88.02;99946.59;5018432;28;20125;-76
2021/08/26 02:02:22;;;;;;;7.47;2.40;;;;;;;14.51;87.56;99950.13;5018099;28;20042;-77
2021/08/26 02:04:47;;;;;;;5.55;2.60;;;;;;;14.45;88.22;99953.84;5021445;28;20038;-77
2021/08/26 02:07:13;;;;;;;6.65;2.38;;;;;;;14.41;88.54;99961.03;5021527;28;20041;-77
2021/08/26 02:09:38;;;;;;;5.80;2.38;;;;;;;14.36;89.18;99960.31;5021552;28;20034;-77
2021/08/26 02:12:05;;;;;;;7.32;3.28;;;;;;;14.29;89.80;99956.09;5021545;28;20119;-77
2021/08/26 02:14:31;;;;;;;9.75;3.58;;;;;;;14.21;90.31;99955.47;5019495;28;20485;-77
2021/08/26 02:16:56;;;;;;;8.77;3.90;;;;;;;14.13;91.53;99955.69;5020401;28;20481;-77
2021/08/26 02:19:22;;;;;;;7.45;3.38;;;;;;;14.12;91.85;99946.00;5020288;28;20053;-77
2021/08/26 02:21:47;;;;;;;7.05;3.20;;;;;;;14.07;92.14;99944.38;5019293;28;20030;-76
2021/08/26 02:24:13;;;;;;;7.68;3.60;;;;;;;14.09;92.36;99945.22;5015349;28;20073;-77
2021/08/26 02:26:38;;;;;;;10.00;3.88;;;;;;;14.09;92.34;99946.06;5028738;28;20034;-77
2021/08/26 02:29:04;;;;;;;6.93;2.97;;;;;;;14.14;92.32;99943.28;5023222;28;20057;-76
2021/08/26 02:31:30;;;;;;;7.25;3.20;;;;;;;14.11;92.28;99943.38;5021188;28;20038;-76
2021/08/26 02:33:55;;;;;;;9.30;3.15;;;;;;;14.11;92.85;99944.25;5020934;28;20041;-77
2021/08/26 02:36:21;;;;;;;7.97;2.85;;;;;;;14.07;92.20;99944.38;5020646;28;20041;-77
2021/08/26 02:38:47;;;;;;;6.25;2.92;;;;;;;14.08;92.13;99935.53;5021217;28;20088;-77
2021/08/26 02:41:13;;;;;;;7.70;3.15;;;;;;;14.03;92.51;99928.56;5022181;28;20029;-77
2021/08/26 02:43:38;;;;;;;5.10;2.67;;;;;;;14.02;93.11;99918.88;5018964;28;20488;-77
2021/08/26 02:46:04;;;;;;;7.22;2.45;;;;;;;14.02;92.96;99918.88;5017523;28;20408;-77
2021/08/26 02:48:29;;;;;;;8.15;3.38;;;;;;;14.01;92.87;99903.00;5017573;28;20046;-77
2021/08/26 02:50:54;;;;;;;9.43;4.07;;;;;;;14.05;92.79;99902.00;5021220;28;20065;-77
2021/08/26 02:53:20;;;;;;;9.52;3.70;;;;;;;14.09;92.60;99902.75;5019335;28;20048;-75
2021/08/26 02:55:45;;;;;;;8.25;3.67;;;;;;;14.07;92.15;99912.53;5017976;28;20072;-77
2021/08/26 02:58:10;;;;;;;8.88;3.45;;;;;;;13.92;92.55;99912.09;5015934;28;20220;-77
2021/08/26 03:00:36;;;;;;;9.57;2.85;;;;;;;13.87;92.21;99911.38;5015963;28;20049;-77
2021/08/26 03:03:01;;;;;;;7.18;3.17;;;;;;;13.77;93.10;99908.09;5016401;28;20030;-77
2021/08/26 03:05:26;;;;;;;8.77;3.63;;;;;;;13.79;93.68;99913.38;5019119;28;20046;-76
2021/08/26 03:07:54;;;;;;;8.70;2.83;;;;;;;13.79;93.24;99913.38;5019853;28;20045;-77
2021/08/26 03:10:19;;;;;;;8.98;3.50;;;;;;;13.79;93.22;99908.94;5020774;28;20160;-77
2021/08/26 03:12:44;;;;;;;6.53;3.00;;;;;;;13.79;93.85;99905.41;5023284;28;20427;-77
2021/08/26 03:15:10;;;;;;;5.55;3.10;;;;;;;13.86;93.43;99917.59;5018116;28;20100;-77
2021/08/26 03:17:35;;;;;;;8.23;3.45;;;;;;;13.97;93.51;99911.97;5014095;28;20042;-76
2021/08/26 03:20:00;;;;;;;7.65;3.35;;;;;;;14.06;93.30;99916.97;5018188;28;20034;-76
2021/08/26 03:22:26;;;;;;;8.27;3.55;;;;;;;14.11;93.43;99916.84;5018844;28;20167;-77
2021/08/26 03:24:51;;;;;;;13.75;3.38;;;;;;;14.13;92.87;99917.69;5022177;28;20092;-76
2021/08/26 03:27:16;;;;;;;9.13;3.35;;;;;;;14.17;92.28;99919.31;5020461;28;20041;-77
2021/08/26 03:29:43;;;;;;;7.07;3.13;;;;;;;14.20;91.88;99911.25;5020486;28;20041;-75
2021/08/26 03:32:08;;;;;;;5.90;3.10;;;;;;;14.18;91.60;99902.50;5039585;28;20033;-78
2021/08/26 03:34:33;;;;;;;8.00;3.38;;;;;;;14.19;91.37;99904.22;5025511;28;20049;-77
2021/08/26 03:36:59;;;;;;;7.28;3.13;;;;;;;14.14;91.87;99912.31;5024231;28;20038;-75
2021/08/26 03:39:24;;;;;;;7.15;3.00;;;;;;;14.16;92.39;99909.63;5024381;28;20041;-77
2021/08/26 03:41:49;;;;;;;8.70;3.15;;;;;;;14.16;91.73;99902.53;5021446;28;20045;-76
2021/08/26 03:44:14;;;;;;;7.40;3.03;;;;;;;14.20;91.65;99904.19;5017785;28;20030;-77
2021/08/26 03:46:40;;;;;;;7.53;3.20;;;;;;;14.22;91.06;99896.16;5017189;28;20041;-77
2021/08/26 03:49:05;;;;;;;8.75;3.47;;;;;;;14.14;91.50;99893.72;5024150;28;20125;-77
2021/08/26 03:51:30;;;;;;;9.80;3.50;;;;;;;14.16;91.39;99899.00;5023051;28;20030;-76
2021/08/26 03:53:56;;;;;;;7.43;3.30;;;;;;;14.20;91.26;99896.22;5019413;28;20038;-77
2021/08/26 03:56:21;;;;;;;7.68;3.38;;;;;;;14.23;90.84;99901.44;5015873;28;20042;-76
2021/08/26 03:58:47;;;;;;;7.70;3.38;;;;;;;14.17;90.96;99892.78;5015136;28;20038;-76
2021/08/26 04:01:12;;;;;;;9.15;3.33;;;;;;;14.16;91.29;99899.00;5015447;28;20423;-77
2021/08/26 04:03:37;;;;;;;8.02;3.00;;;;;;;14.12;91.36;99897.34;5016471;28;20496;-76
2021/08/26 04:06:03;;;;;;;8.10;2.90;;;;;;;14.12;91.01;99907.97;5018992;28;20420;-77
2021/08/26 04:08:28;;;;;;;6.43;3.53;;;;;;;14.11;91.42;99911.53;5019934;28;20496;-77
2021/08/26 04:10:54;;;;;;;11.45;3.55;;;;;;;14.13;92.08;99899.97;5015721;28;20527;-75
2021/08/26 04:13:20;;;;;;;10.43;3.45;;;;;;;14.20;91.64;99900.63;5018403;28;20038;-77
2021/08/26 04:15:47;;;;;;;10.70;3.42;;;;;;;14.23;91.31;99896.13;5014930;28;20048;-76
2021/08/26 04:18:12;;;;;;;9.15;3.67;;;;;;;14.23;90.96;99895.25;5014965;28;20042;-76
2021/08/26 04:20:37;;;;;;;9.95;4.25;;;;;;;14.21;91.14;99887.31;5013622;28;20041;-76
2021/08/26 04:23:06;;;;;;;7.07;3.50;;;;;;;14.22;90.72;99880.22;5010914;28;20045;-76
2021/08/26 04:25:32;;;;;;;10.35;3.65;;;;;;;14.20;90.88;99874.09;5008529;28;20029;-74
2021/08/26 04:27:58;;;;;;;10.50;4.22;;;;;;;14.14;91.02;99879.59;5007225;28;20679;-76
2021/08/26 04:30:25;;;;;;;8.88;4.07;;;;;;;14.11;90.80;99875.25;5013620;28;20034;-75
2021/08/26 04:32:50;;;;;;;7.80;3.83;;;;;;;14.01;90.90;99879.97;5013184;28;20481;-76
2021/08/26 04:35:15;;;;;;;7.50;3.97;;;;;;;13.98;91.40;99880.06;5012628;28;20697;-75
2021/08/26 04:37:41;;;;;;;10.63;4.53;;;;;;;14.02;91.42;99884.38;5012918;28;20026;-75
2021/08/26 04:40:07;;;;;;;10.35;4.13;;;;;;;14.04;91.30;99879.00;5012996;28;20037;-75
2021/08/26 04:42:32;;;;;;;8.52;3.92;;;;;;;14.13;90.91;99883.19;5005983;28;20034;-76
2021/08/26 04:44:58;;;;;;;9.65;4.13;;;;;;;14.12;90.91;99892.03;5012950;28;20639;-74
2021/08/26 04:47:23;;;;;;;11.85;3.92;;;;;;;14.08;90.88;99885.13;5012944;28;20448;-75
2021/08/26 04:49:48;;;;;;;11.40;4.28;;;;;;;14.01;90.61;99877.31;5013646;28;20157;-76
2021/08/26 04:52:14;;;;;;;9.77;3.88;;;;;;;14.09;90.72;99876.22;5013553;28;20054;-77
2021/08/26 04:54:39;;;;;;;9.13;3.55;;;;;;;14.10;90.38;99870.88;5010187;28;20038;-75
2021/08/26 04:57:04;;;;;;;11.40;4.13;;;;;;;14.19;90.15;99877.69;5013323;28;20074;-78
2021/08/26 04:59:30;;;;;;;15.70;4.05;;;;;;;14.21;89.68;99881.16;5012656;28;20088;-78
2021/08/26 05:01:55;;;;;;;9.85;3.25;;;;;;;14.30;89.30;99885.28;5028245;28;20034;-77
2021/08/26 05:04:23;;;;;;;8.32;3.78;;;;;;;14.31;88.63;99893.22;5013360;28;20088;-77
2021/08/26 05:06:52;;;;;;;11.75;3.63;;;;;;;14.31;88.80;99903.84;5011698;28;20099;-78
2021/08/26 05:09:18;;;;;;;12.30;3.97;;;;;;;14.33;88.76;99891.41;5013114;28;20071;-77
2021/08/26 05:11:44;;;;;;;14.98;4.57;;;;;;;14.31;88.61;99887.91;5011877;28;20482;-77
2021/08/26 05:14:09;;;;;;;8.30;3.40;;;;;;;14.40;88.36;99884.94;5011623;28;20068;-77
2021/08/26 05:16:35;;;;;;;10.23;3.83;;;;;;;14.39;88.55;99885.88;5027675;28;20077;-78
2021/08/26 05:19:00;;;;;;;12.52;4.28;;;;;;;14.38;88.35;99886.81;5012861;28;20476;-78
2021/08/26 05:21:26;;;;;;;11.13;3.83;;;;;;;14.39;88.45;99877.06;5011648;28;20072;-77
2021/08/26 05:23:51;;;;;;;13.40;4.70;;;;;;;14.42;88.72;99875.16;5009750;28;20092;-77
2021/08/26 05:26:16;;;;;;;9.10;4.22;;;;;;;14.52;88.68;99885.50;5012720;28;20037;-77
2021/08/26 05:28:42;;;;;;;10.80;4.15;;;;;;;14.57;88.93;99870.31;5010747;28;20037;-77
2021/08/26 05:31:09;;;;;;;10.82;3.90;;;;;;;14.65;88.59;99878.91;5009240;28;20035;-77
2021/08/26 05:33:34;;;;;;;10.40;3.80;;;;;;;14.67;88.45;99863.75;5009690;28;20125;-77
2021/08/26 05:35:59;;;;;;;11.50;3.58;;;;;;;14.69;88.52;99878.72;5008975;28;20120;-78
2021/08/26 05:38:25;;;;;;;10.27;3.92;;;;;;;14.65;88.11;99890.38;5007594;28;20034;-78
2021/08/26 05:40:50;;;;;;;10.35;4.20;;;;;;;14.64;88.56;99879.78;5008757;28;20033;-77
2021/08/26 05:43:15;;;;;;;11.65;4.05;;;;;;;14.67;87.64;99890.31;5011593;28;20029;-77
2021/08/26 05:45:41;;;;;;;14.48;4.55;;;;;;;14.80;87.27;99894.31;5010436;28;20053;-78
2021/08/26 05:48:06;;;;;;;11.05;3.90;;;;;;;14.84;86.52;99890.63;5012455;28;20038;-77
2021/08/26 05:50:32;;;;;;;11.18;4.55;;;;;;;14.88;86.74;99881.66;5012374;28;20045;-77
2021/08/26 05:52:57;;;;;;;16.88;5.57;;;;;;;14.81;87.25;99884.56;5012425;28;20038;-78
2021/08/26 05:55:22;;;;;;;11.60;4.30;;;;;;;14.82;87.51;99873.84;5012158;28;20045;-77
2021/08/26 05:57:48;;;;;;;10.77;4.40;;;;;;;14.82;87.03;99876.50;5012265;28;20049;-77
2021/08/26 06:00:14;;;;;;;14.70;4.60;;;;;;;14.71;87.42;99886.66;5014555;28;20042;-78
2021/08/26 06:02:39;;;;;;;10.07;4.25;;;;;;;14.67;87.34;99890.31;5007789;28;20404;-78
2021/08/26 06:05:05;;;;;;;14.05;4.75;;;;;;;14.70;87.81;99884.91;5008146;28;20064;-78
2021/08/26 06:07:31;;;;;;;14.63;5.32;;;;;;;14.69;87.77;99888.47;5012077;28;20128;-77
2021/08/26 06:09:56;;;;;;;11.57;4.53;;;;;;;14.74;87.81;99889.19;5012032;28;20396;-78
2021/08/26 06:12:21;;;;;;;11.93;4.93;;;;;;;14.75;88.07;99885.63;5012199;28;20046;-78
2021/08/26 06:14:47;;;;;;;17.08;5.57;;;;;;;14.83;88.29;99888.91;5012023;28;20053;-78
2021/08/26 06:17:12;;;;;;;8.65;4.32;;;;;;;14.84;88.17;99887.97;5012037;28;20041;-78
2021/08/26 06:19:37;;;;;;;13.77;5.70;;;;;;;14.79;89.23;99889.03;5011998;28;20049;-79
2021/08/26 06:22:03;;;;;;;12.63;5.35;;;;;;;14.88;88.81;99894.94;5012144;28;20041;-78
2021/08/26 06:24:28;;;;;;;11.50;5.82;;;;;;;14.83;89.04;99896.00;5008643;28;20053;-78
2021/08/26 06:26:58;;;;;;;16.33;6.07;;;;;;;14.86;89.34;99896.75;5011867;28;20037;-78
2021/08/26 06:29:23;;;;;;;15.88;6.50;;;;;;;14.79;90.38;99894.34;5010386;28;20084;-78
2021/08/26 06:31:49;;;;;;;13.73;6.72;;;;;;;14.75;90.56;99898.91;5011720;28;20069;-78
2021/08/26 06:34:14;;;;;;;10.82;4.82;;;;;;;14.75;90.68;99888.28;5011659;28;20631;-77
2021/08/26 06:36:39;;;;;;;12.27;4.90;;;;;;;14.77;90.97;99896.19;5011452;28;20042;-77
2021/08/26 06:39:05;;;;;;;12.07;4.15;;;;;;;14.77;90.62;99893.53;5011666;28;20064;-77
2021/08/26 06:41:30;;;;;;;11.10;4.40;;;;;;;14.73;91.29;99892.78;5011655;28;20061;-78
2021/08/26 06:43:55;;;;;;;9.82;4.10;;;;;;;14.81;90.14;99898.69;5013046;28;20083;-78
2021/08/26 06:46:21;;;;;;;17.63;5.18;;;;;;;14.79;89.42;99903.19;5011390;28;20041;-78
2021/08/26 06:48:47;;;;;;;12.52;4.35;;;;;;;14.81;88.46;99911.13;5011522;28;20129;-78
2021/08/26 06:51:12;;;;;;;10.57;4.00;;;;;;;14.80;88.93;99915.56;5011326;28;20042;-78
2021/08/26 06:53:40;;;;;;;11.77;4.82;;;;;;;14.75;88.45;99916.63;5011500;28;20034;-78
2021/08/26 06:56:06;;;;;;;13.88;4.70;;;;;;;14.64;88.91;99916.97;5011418;28;20373;-77
2021/08/26 06:58:31;;;;;;;9.23;4.85;;;;;;;14.74;88.87;99918.41;5011231;28;20041;-77
2021/08/26 07:00:56;;;;;;;16.50;6.07;;;;;;;14.79;88.65;99921.78;5011339;28;20030;-77
2021/08/26 07:03:22;;;;;;;14.02;4.78;;;;;;;14.84;88.44;99919.84;5011359;28;20042;-78
2021/08/26 07:05:47;;;;;;;15.43;5.30;;;;;;;14.87;89.18;99908.25;5010975;28;20053;-78
2021/08/26 07:08:13;;;;;;;10.07;5.03;;;;;;;14.90;89.26;99914.31;5009987;28;20046;-77
2021/08/26 07:10:38;;;;;;;11.98;4.95;;;;;;;14.97;88.99;99922.09;5011043;28;20042;-78
2021/08/26 07:13:04;;;;;;;12.63;5.05;;;;;;;15.01;87.70;99910.44;5009917;28;20056;-77
2021/08/26 07:15:30;;;;;;;11.63;4.80;;;;;;;14.95;87.79;99915.97;5011009;28;20146;-77
2021/08/26 07:17:55;;;;;;;11.32;4.88;;;;;;;15.00;88.52;99919.34;5011288;28;20053;-78
2021/08/26 07:20:20;;;;;;;11.07;4.75;;;;;;;15.09;87.51;99914.59;5010661;28;20520;-78
2021/08/26 07:22:46;;;;;;;10.23;4.85;;;;;;;15.13;87.16;99918.84;5009823;28;20745;-78
2021/08/26 07:25:11;;;;;;;11.30;4.90;;;;;;;15.23;85.95;99918.53;5007656;28;20030;-79
2021/08/26 07:27:37;;;;;;;13.60;5.00;;;;;;;15.26;86.04;99918.44;5011223;28;20069;-77
2021/08/26 07:30:03;;;;;;;13.10;5.40;;;;;;;15.37;85.74;99910.94;5009831;28;20508;-78
2021/08/26 07:32:28;;;;;;;12.13;4.38;;;;;;;15.48;84.66;99922.06;5011034;28;20041;-77
2021/08/26 07:34:54;;;;;;;9.40;4.03;;;;;;;15.50;85.31;99924.66;5011088;28;20128;-77
2021/08/26 07:37:19;;;;;;;9.48;4.63;;;;;;;15.64;85.00;99933.03;5010792;28;20076;-77
2021/08/26 07:39:45;;;;;;;13.45;4.85;;;;;;;15.73;81.95;99935.38;5010948;28;20049;-77
2021/08/26 07:42:10;;;;;;;13.23;4.57;;;;;;;15.75;81.98;99930.88;5010972;28;20409;-78
2021/08/26 07:44:36;;;;;;;10.80;4.60;;;;;;;15.84;81.45;99934.09;5009748;28;20547;-78
2021/08/26 07:47:01;;;;;;;11.38;4.28;;;;;;;15.82;81.81;99927.97;5008264;28;20061;-78
2021/08/26 07:49:26;;;;;;;12.07;4.90;;;;;;;15.71;81.13;99926.56;5010936;28;20169;-78
2021/08/26 07:51:52;;;;;;;9.45;3.53;;;;;;;15.77;81.52;99928.13;5009704;28;20046;-78
2021/08/26 07:54:17;;;;;;;11.85;4.78;;;;;;;16.01;81.42;99926.38;5009932;28;20065;-78
2021/08/26 07:56:42;;;;;;;10.50;4.07;;;;;;;16.29;79.24;99931.47;5009827;28;20033;-77
2021/08/26 07:59:08;;;;;;;14.20;4.60;;;;;;;16.49;79.55;99919.16;5006476;28;20560;-78
2021/08/26 08:01:33;;;;;;;9.50;3.65;;;;;;;16.63;77.83;99917.66;5010935;28;20038;-78
2021/08/26 08:03:58;;;;;;;9.35;3.65;;;;;;;16.59;77.47;99913.41;5006934;28;20042;-78
2021/08/26 08:06:24;;;;;;;8.93;3.60;;;;;;;16.61;76.49;99910.66;5010531;28;20041;-78
2021/08/26 08:08:49;;;;;;;10.82;3.55;;;;;;;16.39;76.12;99927.50;5009685;28;20026;-78
2021/08/26 08:11:15;;;;;;;8.45;3.00;;;;;;;16.33;77.07;99919.78;5004857;28;20038;-78
2021/08/26 08:13:41;;;;;;;11.48;4.22;;;;;;;16.30;76.89;99919.91;5014281;28;20033;-78
2021/08/26 08:16:06;;;;;;;10.75;3.70;;;;;;;16.43;76.41;99920.28;5014038;28;20476;-78
2021/08/26 08:18:31;;;;;;;11.20;4.63;;;;;;;16.43;76.30;99922.94;5011433;28;20077;-78
2021/08/26 08:20:57;;;;;;;8.88;3.75;;;;;;;16.49;76.46;99917.38;5021747;28;20040;-79
2021/08/26 08:23:22;;;;;;;11.35;3.65;;;;;;;16.39;77.12;99916.84;5025361;28;20492;-78
2021/08/26 08:25:48;;;;;;;10.00;3.65;;;;;;;16.43;76.93;99922.94;5022642;28;20056;-79
2021/08/26 08:28:15;;;;;;;9.73;3.75;;;;;;;16.36;77.05;99916.13;5015614;28;20046;-78
2021/08/26 08:30:41;;;;;;;11.23;4.20;;;;;;;16.28;76.63;99918.22;5015096;28;20049;-79
2021/08/26 08:33:07;;;;;;;10.18;3.75;;;;;;;16.36;76.31;99916.13;5014891;28;20488;-78
2021/08/26 08:35:33;;;;;;;10.13;4.28;;;;;;;16.36;77.13;99917.00;5014265;28;20044;-79
2021/08/26 08:37:58;;;;;;;11.77;3.88;;;;;;;16.36;75.62;99927.63;5013319;28;20056;-78
2021/08/26 08:40:23;;;;;;;14.68;4.78;;;;;;;16.36;76.77;99918.78;5031087;28;20037;-78
2021/08/26 08:42:48;;;;;;;9.45;3.72;;;;;;;16.48;76.11;99915.66;5014985;28;20049;-78
2021/08/26 08:45:14;;;;;;;13.45;3.65;;;;;;;16.47;75.75;99924.56;5014062;28;20092;-79
2021/08/26 08:47:41;;;;;;;11.60;4.10;;;;;;;16.38;76.12;99930.25;5013868;28;20109;-78
2021/08/26 08:50:06;;;;;;;13.30;3.83;;;;;;;16.38;76.02;99925.78;5013953;28;20436;-78
2021/08/26 08:52:37;;;;;;;6.82;3.40;;;;;;;16.35;75.71;99922.41;4989744;28;20048;-78
2021/08/26 08:55:07;;;;;;;12.32;3.08;;;;;;;16.38;74.13;99920.47;5013336;28;20519;-77
2021/08/26 08:57:32;;;;;;;11.13;3.45;;;;;;;16.28;75.42;99928.88;5011367;28;20038;-76
2021/08/26 08:59:57;;;;;;;8.32;3.70;;;;;;;16.37;75.60;99921.41;5010802;28;20531;-77
2021/08/26 09:02:26;;;;;;;11.65;3.33;;;;;;;16.28;75.48;99926.22;5010513;28;20046;-77
2021/08/26 09:04:59;;;;;;;11.48;4.05;;;;;;;16.33;75.53;99929.56;5013736;28;20030;-78
2021/08/26 09:07:27;;;;;;;7.68;3.85;;;;;;;16.29;74.90;99922.63;5013753;28;20064;-76
2021/08/26 09:09:54;;;;;;;9.57;4.00;;;;;;;16.26;74.89;99931.59;5009810;28;20423;-77
2021/08/26 09:12:40;;;;;;;8.55;3.13;;;;;;;16.31;76.13;99921.63;5011118;28;20516;-77
2021/08/26 09:15:10;;;;;;;12.10;4.03;;;;;;;16.41;77.03;99920.34;5010783;28;20033;-78
2021/08/26 09:17:35;;;;;;;11.32;4.40;;;;;;;16.73;75.86;99914.63;5013100;28;20069;-77
2021/08/26 09:20:06;;;;;;;10.95;3.65;;;;;;;16.98;74.52;99925.19;5011908;28;20077;-77
2021/08/26 09:22:31;;;;;;;11.63;3.47;;;;;;;17.28;72.75;99913.19;5028178;28;20038;-77
2021/08/26 09:24:57;;;;;;;11.75;3.53;;;;;;;17.42;72.32;99920.59;5013098;28;20481;-77
2021/08/26 09:27:31;;;;;;;9.82;3.42;;;;;;;17.51;70.37;99909.50;5012770;28;20041;-77
2021/08/26 09:30:08;;;;;;;10.18;3.35;;;;;;;17.38;70.02;99916.31;5009863;28;20041;-78
2021/08/26 09:32:40;;;;;;;7.13;3.10;;;;;;;17.57;70.02;99902.16;5012755;28;20699;-78
2021/08/26 09:35:11;;;;;;;;;;;;;;;17.48;69.23;99895.44;5013173;28;20512;-78
2021/08/26 09:37:45;;;;;;;13.20;3.00;;;;;;;17.74;67.71;99900.47;5011278;28;19917;-78
2021/08/26 09:40:12;;;;;;;8.65;2.95;;;;;;;17.80;67.28;99903.84;5010378;28;20057;-78
2021/08/26 09:42:37;;;;;;;6.75;2.58;;;;;;;17.80;66.47;99899.34;5011818;28;20026;-78
2021/08/26 09:45:17;;;;;;;8.27;3.05;;;;;;;18.00;66.94;99902.88;5011820;28;20216;-78
2021/08/26 09:48:12;;;;;;;9.02;2.70;;;;;;;18.02;65.57;99899.22;5010118;28;20044;-78
2021/08/26 09:50:45;;;;;;;10.20;2.90;;;;;;;18.39;65.12;99903.69;5021968;28;20045;-78
2021/08/26 09:53:16;;;;;;;8.32;2.50;;;;;;;18.45;64.97;99881.13;5013193;28;20558;-78
2021/08/26 09:55:50;;;;;;;7.10;2.58;;;;;;;18.58;63.37;99892.09;5012996;28;20116;-78
2021/08/26 09:58:20;;;;;;;9.60;3.15;;;;;;;18.12;65.92;99894.31;5012009;28;20091;-78
2021/08/26 10:00:46;;;;;;;9.30;3.30;;;;;;;17.41;70.67;99896.66;5013311;28;20036;-79
2021/08/26 10:03:13;;;;;;;9.18;3.42;;;;;;;17.01;74.77;99890.41;5014494;28;20026;-78
2021/08/26 10:05:43;;;;;;;8.88;3.80;;;;;;;16.91;73.62;99907.72;5015075;28;20038;-78
2021/08/26 10:08:09;;;;;;;8.82;3.47;;;;;;;16.81;73.57;99894.75;5012876;28;20045;-78
2021/08/26 10:10:34;;;;;;;9.52;3.22;;;;;;;16.88;74.89;99892.72;5011512;28;20038;-78
2021/08/26 10:13:00;;;;;;;6.47;2.83;;;;;;;16.93;72.86;99890.72;5012854;28;20030;-78
2021/08/26 10:15:27;;;;;;;9.77;3.22;;;;;;;16.77;71.89;99885.16;4994169;28;20029;-76
2021/08/26 10:17:53;;;;;;;14.00;4.28;;;;;;;17.03;72.60;99876.06;5011678;28;20141;-77
2021/08/26 10:20:22;;;;;;;11.02;3.60;;;;;;;17.45;69.99;99877.78;5011611;28;20030;-77
2021/08/26 10:22:48;;;;;;;10.98;3.40;;;;;;;17.60;70.08;99876.19;5006264;28;20034;-79
2021/08/26 10:25:14;;;;;;;10.32;3.10;;;;;;;17.98;67.66;99859.41;5010074;28;20041;-79
2021/08/26 10:27:40;;;;;;;6.90;2.95;;;;;;;18.47;67.22;99857.00;5013426;28;20045;-77
2021/08/26 10:30:06;;;;;;;9.30;3.60;;;;;;;18.65;64.49;99864.09;5011332;28;20403;-76
2021/08/26 10:32:32;;;;;;;11.40;3.25;;;;;;;18.61;64.29;99862.53;5011776;28;20038;-77
2021/08/26 10:35:06;;;;;;;11.45;2.70;;;;;;;18.42;64.51;99859.94;5012210;28;20049;-77
2021/08/26 10:37:55;;;;;;;10.95;3.28;;;;;;;18.09;66.61;99867.75;5009193;28;20132;-78
2021/08/26 10:40:36;;;;;;;9.25;3.35;;;;;;;17.65;68.75;99851.97;5006317;28;20124;-78
2021/08/26 10:43:03;;;;;;;9.60;3.20;;;;;;;17.53;69.23;99866.75;5008852;28;20049;-78
2021/08/26 10:45:44;;;;;;;8.38;3.08;;;;;;;17.50;68.17;99854.44;5011719;28;20273;-77
2021/08/26 10:48:12;;;;;;;8.38;2.72;;;;;;;18.11;66.67;99860.53;5017387;28;20447;-78
2021/08/26 10:50:39;;;;;;;6.28;2.47;;;;;;;18.44;63.03;99857.16;4985691;28;20137;-78
2021/08/26 10:53:26;;;;;;;6.53;2.00;;;;;;;18.68;60.83;99863.97;4990366;28;20034;-78
2021/08/26 10:55:53;;;;;;;7.63;2.35;;;;;;;18.79;56.80;99858.13;4980972;28;20050;-78
2021/08/26 10:58:22;;;;;;;8.38;1.92;;;;;;;18.72;58.17;99864.66;4991810;28;20096;-77
2021/08/26 11:00:49;;;;;;;9.40;1.95;;;;;;;18.58;60.45;99862.69;4993501;28;20042;-79
2021/08/26 11:03:33;;;;;;;7.93;2.05;;;;;;;18.86;59.86;99864.00;5007299;28;20035;-79
2021/08/26 11:06:00;;;;;;;8.93;3.03;;;;;;;19.03;58.35;99875.56;4992401;28;20133;-79
2021/08/26 11:08:27;;;;;;;6.15;2.30;;;;;;;19.05;58.23;99865.66;4993987;28;20488;-79
2021/08/26 11:10:54;;;;;;;8.80;2.60;;;;;;;19.31;57.27;99870.56;4994057;28;20037;-79
2021/08/26 11:13:34;;;;;;;8.40;2.60;;;;;;;19.52;57.03;99856.09;4993137;28;20034;-78
2021/08/26 11:16:24;;;;;;;6.97;2.15;;;;;;;19.38;57.87;99861.28;4989557;28;20560;-79
2021/08/26 11:18:58;;;;;;;6.32;2.50;;;;;;;19.24;57.26;99864.69;4994163;28;20096;-79
2021/08/26 11:21:45;;;;;;;5.57;1.83;;;;;;;18.99;59.54;99854.41;4981698;28;20031;-79
2021/08/26 11:24:19;;;;;;;6.70;2.17;;;;;;;18.42;62.09;99849.25;5009348;28;20081;-79
2021/08/26 11:26:48;;;;;;;7.85;1.95;;;;;;;17.72;65.36;99856.09;4990887;28;20086;-80
2021/08/26 11:29:17;;;;;;;6.45;2.30;;;;;;;17.57;67.94;99854.13;4989399;28;20083;-80
2021/08/26 11:31:43;;;;;;;8.95;3.10;;;;;;;17.72;70.01;99854.31;4991205;28;20034;-80
2021/08/26 11:34:08;;;;;;;6.45;2.40;;;;;;;18.10;67.52;99858.78;4990656;28;20018;-79